sensor_id;sensor_type;location;lat;lon;timestamp;temperature;humidity
18932;DHT22;9598;50.954;3.112;2023-09-19T00:03:48;16.60;99.90
18932;DHT22;9598;50.954;3.112;2023-09-19T00:08:50;16.50;99.90
18932;DHT22;9598;50.954;3.112;2023-09-19T00:13:55;16.60;99.90
18932;DHT22;9598;50.954;3.112;2023-09-19T00:19:00;16.60;99.90
18932;DHT22;9598;50.954;3.112;2023-09-19T00:24:08;16.60;99.90
18932;DHT22;9598;50.954;3.112;2023-09-19T00:29:12;16.70;99.90
18932;DHT22;9598;50.954;3.112;2023-09-19T00:34:17;16.70;99.90
18932;DHT22;9598;50.954;3.112;2023-09-19T00:39:19;16.70;99.90
18932;DHT22;9598;50.954;3.112;2023-09-19T00:44:24;16.70;99.90
18932;DHT22;9598;50.954;3.112;2023-09-19T00:49:26;16.70;99.90
18932;DHT22;9598;50.954;3.112;2023-09-19T00:54:28;16.70;99.90
18932;DHT22;9598;50.954;3.112;2023-09-19T00:59:32;16.70;99.90
18932;DHT22;9598;50.954;3.112;2023-09-19T01:04:36;16.70;99.90
18932;DHT22;9598;50.954;3.112;2023-09-19T01:09:39;16.60;99.90
18932;DHT22;9598;50.954;3.112;2023-09-19T01:14:54;16.60;99.90
18932;DHT22;9598;50.954;3.112;2023-09-19T01:20:17;16.50;99.90
18932;DHT22;9598;50.954;3.112;2023-09-19T01:31:02;16.50;99.90
18932;DHT22;9598;50.954;3.112;2023-09-19T01:36:05;16.40;99.90
18932;DHT22;9598;50.954;3.112;2023-09-19T01:41:12;16.50;99.90
18932;DHT22;9598;50.954;3.112;2023-09-19T01:46:23;16.40;99.90
18932;DHT22;9598;50.954;3.112;2023-09-19T01:51:32;16.50;99.90
18932;DHT22;9598;50.954;3.112;2023-09-19T01:56:38;16.40;99.90
18932;DHT22;9598;50.954;3.112;2023-09-19T02:01:45;16.40;99.90
18932;DHT22;9598;50.954;3.112;2023-09-19T02:06:48;16.40;99.90
18932;DHT22;9598;50.954;3.112;2023-09-19T02:11:53;16.40;99.90
18932;DHT22;9598;50.954;3.112;2023-09-19T02:16:57;16.40;99.90
18932;DHT22;9598;50.954;3.112;2023-09-19T02:22:00;16.40;99.90
18932;DHT22;9598;50.954;3.112;2023-09-19T02:27:04;16.40;99.90
18932;DHT22;9598;50.954;3.112;2023-09-19T02:32:07;16.40;99.90
18932;DHT22;9598;50.954;3.112;2023-09-19T02:37:11;16.40;99.90
18932;DHT22;9598;50.954;3.112;2023-09-19T02:42:14;16.40;99.90
18932;DHT22;9598;50.954;3.112;2023-09-19T02:47:17;16.40;99.90
18932;DHT22;9598;50.954;3.112;2023-09-19T02:52:20;16.50;99.90
18932;DHT22;9598;50.954;3.112;2023-09-19T02:57:22;16.50;99.90
18932;DHT22;9598;50.954;3.112;2023-09-19T03:02:26;16.50;99.90
18932;DHT22;9598;50.954;3.112;2023-09-19T03:07:28;16.40;99.90
18932;DHT22;9598;50.954;3.112;2023-09-19T03:12:31;16.40;99.90
18932;DHT22;9598;50.954;3.112;2023-09-19T03:17:36;16.30;99.90
18932;DHT22;9598;50.954;3.112;2023-09-19T03:22:38;16.30;99.90
18932;DHT22;9598;50.954;3.112;2023-09-19T03:27:40;16.30;99.90
18932;DHT22;9598;50.954;3.112;2023-09-19T03:32:46;16.30;99.90
18932;DHT22;9598;50.954;3.112;2023-09-19T03:37:51;16.20;99.90
18932;DHT22;9598;50.954;3.112;2023-09-19T03:42:53;16.10;99.90
18932;DHT22;9598;50.954;3.112;2023-09-19T03:47:57;16.10;99.90
18932;DHT22;9598;50.954;3.112;2023-09-19T03:52:59;16.00;99.90
18932;DHT22;9598;50.954;3.112;2023-09-19T03:58:03;16.00;99.90
18932;DHT22;9598;50.954;3.112;2023-09-19T04:03:07;16.00;99.90
18932;DHT22;9598;50.954;3.112;2023-09-19T04:08:09;15.90;99.90
18932;DHT22;9598;50.954;3.112;2023-09-19T04:13:11;15.90;99.90
18932;DHT22;9598;50.954;3.112;2023-09-19T04:18:15;15.80;99.90
18932;DHT22;9598;50.954;3.112;2023-09-19T04:23:17;15.80;99.90
18932;DHT22;9598;50.954;3.112;2023-09-19T04:28:20;15.70;99.90
18932;DHT22;9598;50.954;3.112;2023-09-19T04:33:25;15.70;99.90
18932;DHT22;9598;50.954;3.112;2023-09-19T04:38:27;15.70;99.90
18932;DHT22;9598;50.954;3.112;2023-09-19T04:43:29;15.70;99.90
18932;DHT22;9598;50.954;3.112;2023-09-19T04:48:33;15.70;99.90
18932;DHT22;9598;50.954;3.112;2023-09-19T04:53:36;15.70;99.90
18932;DHT22;9598;50.954;3.112;2023-09-19T04:58:38;15.70;99.90
18932;DHT22;9598;50.954;3.112;2023-09-19T05:03:42;15.70;99.90
18932;DHT22;9598;50.954;3.112;2023-09-19T05:08:45;15.70;99.90
18932;DHT22;9598;50.954;3.112;2023-09-19T05:13:47;15.70;99.90
18932;DHT22;9598;50.954;3.112;2023-09-19T05:18:52;15.80;99.90
18932;DHT22;9598;50.954;3.112;2023-09-19T05:23:54;15.70;99.90
18932;DHT22;9598;50.954;3.112;2023-09-19T05:28:56;15.70;99.90
18932;DHT22;9598;50.954;3.112;2023-09-19T05:33:59;15.70;99.90
18932;DHT22;9598;50.954;3.112;2023-09-19T05:39:01;15.60;99.90
18932;DHT22;9598;50.954;3.112;2023-09-19T05:44:14;15.60;99.90
18932;DHT22;9598;50.954;3.112;2023-09-19T05:49:18;15.60;99.90
18932;DHT22;9598;50.954;3.112;2023-09-19T05:54:22;15.70;99.90
18932;DHT22;9598;50.954;3.112;2023-09-19T05:59:24;15.70;99.90
18932;DHT22;9598;50.954;3.112;2023-09-19T06:04:27;15.70;99.90
18932;DHT22;9598;50.954;3.112;2023-09-19T06:09:31;15.70;99.90
18932;DHT22;9598;50.954;3.112;2023-09-19T06:14:34;15.70;99.90
18932;DHT22;9598;50.954;3.112;2023-09-19T06:19:37;15.80;99.90
18932;DHT22;9598;50.954;3.112;2023-09-19T06:24:40;15.80;99.90
18932;DHT22;9598;50.954;3.112;2023-09-19T06:29:42;15.80;99.90
18932;DHT22;9598;50.954;3.112;2023-09-19T06:34:45;15.80;99.90
18932;DHT22;9598;50.954;3.112;2023-09-19T06:39:47;15.80;99.90
18932;DHT22;9598;50.954;3.112;2023-09-19T06:44:50;15.80;99.90
18932;DHT22;9598;50.954;3.112;2023-09-19T06:49:53;15.90;99.90
18932;DHT22;9598;50.954;3.112;2023-09-19T06:54:55;16.00;99.90
18932;DHT22;9598;50.954;3.112;2023-09-19T06:59:58;16.00;99.90
18932;DHT22;9598;50.954;3.112;2023-09-19T07:05:03;16.00;99.90
18932;DHT22;9598;50.954;3.112;2023-09-19T07:10:08;16.10;99.90
18932;DHT22;9598;50.954;3.112;2023-09-19T07:15:11;16.10;99.90
18932;DHT22;9598;50.954;3.112;2023-09-19T07:20:15;16.20;99.90
18932;DHT22;9598;50.954;3.112;2023-09-19T07:25:18;16.30;99.90
18932;DHT22;9598;50.954;3.112;2023-09-19T07:30:20;16.30;99.90
18932;DHT22;9598;50.954;3.112;2023-09-19T07:35:23;16.30;99.90
18932;DHT22;9598;50.954;3.112;2023-09-19T07:40:26;16.30;99.90
18932;DHT22;9598;50.954;3.112;2023-09-19T07:45:29;16.40;99.90
18932;DHT22;9598;50.954;3.112;2023-09-19T07:50:34;16.40;99.90
18932;DHT22;9598;50.954;3.112;2023-09-19T07:55:37;16.50;99.90
18932;DHT22;9598;50.954;3.112;2023-09-19T08:00:40;16.60;99.90
18932;DHT22;9598;50.954;3.112;2023-09-19T08:05:44;16.60;99.90
18932;DHT22;9598;50.954;3.112;2023-09-19T08:10:46;16.70;99.90
18932;DHT22;9598;50.954;3.112;2023-09-19T08:15:54;16.80;99.90
18932;DHT22;9598;50.954;3.112;2023-09-19T08:20:57;16.90;99.90
18932;DHT22;9598;50.954;3.112;2023-09-19T08:26:01;17.00;99.90
18932;DHT22;9598;50.954;3.112;2023-09-19T08:31:07;17.10;99.90
18932;DHT22;9598;50.954;3.112;2023-09-19T08:36:11;17.10;99.90
18932;DHT22;9598;50.954;3.112;2023-09-19T08:41:17;17.30;99.90
18932;DHT22;9598;50.954;3.112;2023-09-19T08:46:22;17.40;99.90
18932;DHT22;9598;50.954;3.112;2023-09-19T08:51:39;17.50;99.90
18932;DHT22;9598;50.954;3.112;2023-09-19T08:56:45;17.60;99.90
18932;DHT22;9598;50.954;3.112;2023-09-19T09:01:48;17.60;99.90
18932;DHT22;9598;50.954;3.112;2023-09-19T09:06:55;17.70;99.90
18932;DHT22;9598;50.954;3.112;2023-09-19T09:11:59;17.70;99.90
18932;DHT22;9598;50.954;3.112;2023-09-19T09:17:01;17.80;99.90
18932;DHT22;9598;50.954;3.112;2023-09-19T09:22:08;17.90;99.90
18932;DHT22;9598;50.954;3.112;2023-09-19T09:27:13;18.10;99.90
18932;DHT22;9598;50.954;3.112;2023-09-19T09:32:17;18.20;99.90
18932;DHT22;9598;50.954;3.112;2023-09-19T09:37:23;18.30;99.90
18932;DHT22;9598;50.954;3.112;2023-09-19T09:42:32;18.50;99.90
18932;DHT22;9598;50.954;3.112;2023-09-19T09:47:41;18.60;99.90
18932;DHT22;9598;50.954;3.112;2023-09-19T09:52:52;18.70;99.90
18932;DHT22;9598;50.954;3.112;2023-09-19T09:58:16;19.00;99.90
18932;DHT22;9598;50.954;3.112;2023-09-19T10:03:20;19.20;99.90
18932;DHT22;9598;50.954;3.112;2023-09-19T10:08:24;19.40;99.90
18932;DHT22;9598;50.954;3.112;2023-09-19T10:13:32;19.50;99.90
18932;DHT22;9598;50.954;3.112;2023-09-19T10:18:38;19.60;99.90
18932;DHT22;9598;50.954;3.112;2023-09-19T10:23:44;19.90;99.90
18932;DHT22;9598;50.954;3.112;2023-09-19T10:28:49;20.00;99.90
18932;DHT22;9598;50.954;3.112;2023-09-19T10:33:53;19.90;99.90
18932;DHT22;9598;50.954;3.112;2023-09-19T10:38:59;19.70;99.90
18932;DHT22;9598;50.954;3.112;2023-09-19T10:44:04;19.70;99.90
18932;DHT22;9598;50.954;3.112;2023-09-19T10:49:07;19.80;99.90
18932;DHT22;9598;50.954;3.112;2023-09-19T10:54:15;19.90;99.90
18932;DHT22;9598;50.954;3.112;2023-09-19T10:59:18;20.10;99.90
18932;DHT22;9598;50.954;3.112;2023-09-19T11:04:26;20.20;99.90
18932;DHT22;9598;50.954;3.112;2023-09-19T11:09:47;20.20;99.90
18932;DHT22;9598;50.954;3.112;2023-09-19T11:14:52;20.20;99.90
18932;DHT22;9598;50.954;3.112;2023-09-19T11:20:25;20.10;99.90
18932;DHT22;9598;50.954;3.112;2023-09-19T11:25:43;20.00;99.90
18932;DHT22;9598;50.954;3.112;2023-09-19T11:30:50;20.00;99.90
18932;DHT22;9598;50.954;3.112;2023-09-19T11:36:02;20.00;99.90
18932;DHT22;9598;50.954;3.112;2023-09-19T11:41:39;20.10;99.90
18932;DHT22;9598;50.954;3.112;2023-09-19T11:46:52;20.20;99.90
18932;DHT22;9598;50.954;3.112;2023-09-19T11:51:55;20.10;99.90
18932;DHT22;9598;50.954;3.112;2023-09-19T11:57:00;20.20;99.90
18932;DHT22;9598;50.954;3.112;2023-09-19T12:02:04;20.20;99.90
18932;DHT22;9598;50.954;3.112;2023-09-19T12:07:10;20.40;99.90
18932;DHT22;9598;50.954;3.112;2023-09-19T12:12:23;20.40;99.90
18932;DHT22;9598;50.954;3.112;2023-09-19T12:17:35;20.30;99.90
18932;DHT22;9598;50.954;3.112;2023-09-19T12:22:39;20.30;99.90
18932;DHT22;9598;50.954;3.112;2023-09-19T12:27:43;20.30;99.90
18932;DHT22;9598;50.954;3.112;2023-09-19T12:32:47;20.40;99.90
18932;DHT22;9598;50.954;3.112;2023-09-19T12:37:52;20.50;99.90
18932;DHT22;9598;50.954;3.112;2023-09-19T12:42:57;20.50;99.90
18932;DHT22;9598;50.954;3.112;2023-09-19T12:48:19;20.50;99.90
18932;DHT22;9598;50.954;3.112;2023-09-19T12:53:25;20.50;99.90
18932;DHT22;9598;50.954;3.112;2023-09-19T12:58:31;20.50;99.90
18932;DHT22;9598;50.954;3.112;2023-09-19T13:03:34;20.50;99.90
18932;DHT22;9598;50.954;3.112;2023-09-19T13:08:38;20.50;99.90
18932;DHT22;9598;50.954;3.112;2023-09-19T13:13:45;20.30;99.90
18932;DHT22;9598;50.954;3.112;2023-09-19T13:18:51;20.30;99.90
18932;DHT22;9598;50.954;3.112;2023-09-19T13:23:55;20.30;99.90
18932;DHT22;9598;50.954;3.112;2023-09-19T13:29:01;20.40;99.90
18932;DHT22;9598;50.954;3.112;2023-09-19T13:34:04;20.40;99.90
18932;DHT22;9598;50.954;3.112;2023-09-19T13:39:05;20.40;99.90
18932;DHT22;9598;50.954;3.112;2023-09-19T13:44:11;20.30;99.90
18932;DHT22;9598;50.954;3.112;2023-09-19T13:49:13;20.20;99.90
18932;DHT22;9598;50.954;3.112;2023-09-19T13:54:16;20.10;99.90
18932;DHT22;9598;50.954;3.112;2023-09-19T13:59:19;20.10;99.90
18932;DHT22;9598;50.954;3.112;2023-09-19T14:04:22;20.20;99.90
18932;DHT22;9598;50.954;3.112;2023-09-19T14:09:24;20.20;99.90
18932;DHT22;9598;50.954;3.112;2023-09-19T14:14:27;20.20;99.90
18932;DHT22;9598;50.954;3.112;2023-09-19T14:19:30;20.20;99.90
18932;DHT22;9598;50.954;3.112;2023-09-19T14:24:33;20.20;99.90
18932;DHT22;9598;50.954;3.112;2023-09-19T14:29:36;20.20;99.90
18932;DHT22;9598;50.954;3.112;2023-09-19T14:34:38;20.20;99.90
18932;DHT22;9598;50.954;3.112;2023-09-19T14:39:43;20.20;99.90
18932;DHT22;9598;50.954;3.112;2023-09-19T14:44:47;20.10;99.90
18932;DHT22;9598;50.954;3.112;2023-09-19T14:49:49;20.10;99.90
18932;DHT22;9598;50.954;3.112;2023-09-19T14:54:51;20.00;99.90
18932;DHT22;9598;50.954;3.112;2023-09-19T14:59:55;19.90;99.90
18932;DHT22;9598;50.954;3.112;2023-09-19T15:04:57;19.90;99.90
18932;DHT22;9598;50.954;3.112;2023-09-19T15:09:59;19.80;99.90
18932;DHT22;9598;50.954;3.112;2023-09-19T15:15:02;19.80;99.90
18932;DHT22;9598;50.954;3.112;2023-09-19T15:20:07;19.80;99.90
18932;DHT22;9598;50.954;3.112;2023-09-19T15:25:09;19.80;99.90
18932;DHT22;9598;50.954;3.112;2023-09-19T15:30:13;19.80;99.90
18932;DHT22;9598;50.954;3.112;2023-09-19T15:35:16;19.80;99.90
18932;DHT22;9598;50.954;3.112;2023-09-19T15:40:18;19.70;99.90
18932;DHT22;9598;50.954;3.112;2023-09-19T15:45:23;19.70;99.90
18932;DHT22;9598;50.954;3.112;2023-09-19T15:50:26;19.60;99.90
18932;DHT22;9598;50.954;3.112;2023-09-19T15:55:28;19.50;99.90
18932;DHT22;9598;50.954;3.112;2023-09-19T16:00:31;19.40;99.90
18932;DHT22;9598;50.954;3.112;2023-09-19T16:05:37;19.30;99.90
18932;DHT22;9598;50.954;3.112;2023-09-19T16:10:40;19.30;99.90
18932;DHT22;9598;50.954;3.112;2023-09-19T16:15:43;19.20;99.90
18932;DHT22;9598;50.954;3.112;2023-09-19T16:20:46;19.10;99.90
18932;DHT22;9598;50.954;3.112;2023-09-19T16:25:48;19.00;99.90
18932;DHT22;9598;50.954;3.112;2023-09-19T16:30:51;19.00;99.90
18932;DHT22;9598;50.954;3.112;2023-09-19T16:35:54;18.90;99.90
18932;DHT22;9598;50.954;3.112;2023-09-19T16:40:57;18.90;99.90
18932;DHT22;9598;50.954;3.112;2023-09-19T16:46:02;18.90;99.90
18932;DHT22;9598;50.954;3.112;2023-09-19T16:51:08;18.90;99.90
18932;DHT22;9598;50.954;3.112;2023-09-19T16:56:11;18.80;99.90
18932;DHT22;9598;50.954;3.112;2023-09-19T17:01:16;18.90;99.90
18932;DHT22;9598;50.954;3.112;2023-09-19T17:06:19;18.90;99.90
18932;DHT22;9598;50.954;3.112;2023-09-19T17:11:24;18.90;99.90
18932;DHT22;9598;50.954;3.112;2023-09-19T17:16:27;18.90;99.90
18932;DHT22;9598;50.954;3.112;2023-09-19T17:21:30;18.90;99.90
18932;DHT22;9598;50.954;3.112;2023-09-19T17:26:32;18.90;99.90
18932;DHT22;9598;50.954;3.112;2023-09-19T17:31:35;18.90;99.90
18932;DHT22;9598;50.954;3.112;2023-09-19T17:36:40;18.90;99.90
18932;DHT22;9598;50.954;3.112;2023-09-19T17:41:43;18.90;99.90
18932;DHT22;9598;50.954;3.112;2023-09-19T17:46:46;18.90;99.90
18932;DHT22;9598;50.954;3.112;2023-09-19T17:51:49;18.90;99.90
18932;DHT22;9598;50.954;3.112;2023-09-19T17:56:51;18.90;99.90
18932;DHT22;9598;50.954;3.112;2023-09-19T18:01:55;18.90;99.90
18932;DHT22;9598;50.954;3.112;2023-09-19T18:06:57;18.90;99.90
18932;DHT22;9598;50.954;3.112;2023-09-19T18:11:59;18.90;99.90
18932;DHT22;9598;50.954;3.112;2023-09-19T18:17:03;18.90;99.90
18932;DHT22;9598;50.954;3.112;2023-09-19T18:22:05;18.90;99.90
18932;DHT22;9598;50.954;3.112;2023-09-19T18:27:07;18.90;99.90
18932;DHT22;9598;50.954;3.112;2023-09-19T18:32:11;18.90;99.90
18932;DHT22;9598;50.954;3.112;2023-09-19T18:37:13;18.90;99.90
18932;DHT22;9598;50.954;3.112;2023-09-19T18:42:15;18.90;99.90
18932;DHT22;9598;50.954;3.112;2023-09-19T18:47:19;19.00;99.90
18932;DHT22;9598;50.954;3.112;2023-09-19T18:52:23;19.00;99.90
18932;DHT22;9598;50.954;3.112;2023-09-19T18:57:25;19.00;99.90
18932;DHT22;9598;50.954;3.112;2023-09-19T19:02:29;19.00;99.90
18932;DHT22;9598;50.954;3.112;2023-09-19T19:07:31;19.00;99.90
18932;DHT22;9598;50.954;3.112;2023-09-19T19:12:35;19.00;99.90
18932;DHT22;9598;50.954;3.112;2023-09-19T19:17:39;19.00;99.90
18932;DHT22;9598;50.954;3.112;2023-09-19T19:22:44;19.00;99.90
18932;DHT22;9598;50.954;3.112;2023-09-19T19:27:46;19.10;99.90
18932;DHT22;9598;50.954;3.112;2023-09-19T19:32:50;19.10;99.90
18932;DHT22;9598;50.954;3.112;2023-09-19T19:37:52;19.10;99.90
18932;DHT22;9598;50.954;3.112;2023-09-19T19:42:54;19.10;99.90
18932;DHT22;9598;50.954;3.112;2023-09-19T19:47:58;19.20;99.90
18932;DHT22;9598;50.954;3.112;2023-09-19T19:53:00;19.20;99.90
18932;DHT22;9598;50.954;3.112;2023-09-19T19:58:02;19.20;99.90
18932;DHT22;9598;50.954;3.112;2023-09-19T20:03:05;19.20;99.90
18932;DHT22;9598;50.954;3.112;2023-09-19T20:08:08;19.20;99.90
18932;DHT22;9598;50.954;3.112;2023-09-19T20:13:12;19.30;99.90
18932;DHT22;9598;50.954;3.112;2023-09-19T20:18:17;19.30;99.90
18932;DHT22;9598;50.954;3.112;2023-09-19T20:23:20;19.30;99.90
18932;DHT22;9598;50.954;3.112;2023-09-19T20:28:22;19.30;99.90
18932;DHT22;9598;50.954;3.112;2023-09-19T20:33:26;19.30;99.90
18932;DHT22;9598;50.954;3.112;2023-09-19T20:38:28;19.40;99.90
18932;DHT22;9598;50.954;3.112;2023-09-19T20:43:31;19.40;99.90
18932;DHT22;9598;50.954;3.112;2023-09-19T20:48:35;19.40;99.90
18932;DHT22;9598;50.954;3.112;2023-09-19T20:53:37;19.30;99.90
18932;DHT22;9598;50.954;3.112;2023-09-19T20:58:40;19.30;99.90
18932;DHT22;9598;50.954;3.112;2023-09-19T21:03:44;19.30;99.90
18932;DHT22;9598;50.954;3.112;2023-09-19T21:08:46;19.40;99.90
18932;DHT22;9598;50.954;3.112;2023-09-19T21:13:48;19.40;99.90
18932;DHT22;9598;50.954;3.112;2023-09-19T21:18:53;19.40;99.90
18932;DHT22;9598;50.954;3.112;2023-09-19T21:23:55;19.40;99.90
18932;DHT22;9598;50.954;3.112;2023-09-19T21:28:57;19.40;99.90
18932;DHT22;9598;50.954;3.112;2023-09-19T21:34:00;19.40;99.90
18932;DHT22;9598;50.954;3.112;2023-09-19T21:39:03;19.40;99.90
18932;DHT22;9598;50.954;3.112;2023-09-19T21:44:06;19.30;99.90
18932;DHT22;9598;50.954;3.112;2023-09-19T21:49:10;19.40;99.90
18932;DHT22;9598;50.954;3.112;2023-09-19T21:54:12;19.40;99.90
18932;DHT22;9598;50.954;3.112;2023-09-19T21:59:14;19.40;99.90
18932;DHT22;9598;50.954;3.112;2023-09-19T22:04:18;19.40;99.90
18932;DHT22;9598;50.954;3.112;2023-09-19T22:09:22;19.40;99.90
18932;DHT22;9598;50.954;3.112;2023-09-19T22:14:24;19.40;99.90
18932;DHT22;9598;50.954;3.112;2023-09-19T22:19:31;19.40;99.90
18932;DHT22;9598;50.954;3.112;2023-09-19T22:24:33;19.40;99.90
18932;DHT22;9598;50.954;3.112;2023-09-19T22:29:36;19.50;99.90
18932;DHT22;9598;50.954;3.112;2023-09-19T22:34:44;19.50;99.90
18932;DHT22;9598;50.954;3.112;2023-09-19T22:39:48;19.50;99.90
18932;DHT22;9598;50.954;3.112;2023-09-19T22:44:51;19.50;99.90
18932;DHT22;9598;50.954;3.112;2023-09-19T22:49:56;19.50;99.90
18932;DHT22;9598;50.954;3.112;2023-09-19T22:55:00;19.50;99.90
18932;DHT22;9598;50.954;3.112;2023-09-19T23:00:03;19.50;99.90
18932;DHT22;9598;50.954;3.112;2023-09-19T23:05:09;19.50;99.90
18932;DHT22;9598;50.954;3.112;2023-09-19T23:10:15;19.50;99.90
18932;DHT22;9598;50.954;3.112;2023-09-19T23:15:18;19.50;99.90
18932;DHT22;9598;50.954;3.112;2023-09-19T23:20:21;19.50;99.90
18932;DHT22;9598;50.954;3.112;2023-09-19T23:25:27;19.50;99.90
18932;DHT22;9598;50.954;3.112;2023-09-19T23:30:31;19.50;99.90
18932;DHT22;9598;50.954;3.112;2023-09-19T23:35:35;19.50;99.90
18932;DHT22;9598;50.954;3.112;2023-09-19T23:40:37;19.50;99.90
18932;DHT22;9598;50.954;3.112;2023-09-19T23:45:40;19.50;99.90
18932;DHT22;9598;50.954;3.112;2023-09-19T23:50:43;19.40;99.90
18932;DHT22;9598;50.954;3.112;2023-09-19T23:55:49;19.40;99.90
